Terminal Aerodrome Forecast
Issued by NWS

Home | Current Version | Previous Version | Text Only | Print | Product List | Glossary Off
Versions: 1 2 3 4 5 6 7 8 9 10 11 12 13 14 15 16 17 18

677
FTUS43 KMPX 281120
TAFAXN
TAF
KAXN 281120Z 2812/2912 04005KT 6SM BR BKN008 OVC015
     FM281500 05006KT P6SM SCT008 OVC015
     FM281800 01006KT 6SM -SHRA BR BKN025 OVC050
     FM290000 31006KT P6SM VCSH OVC015
     FM290600 31006KT P6SM SCT015 BKN080=

USA.gov is the U.S. government's official web portal to all federal, state and local government web resources and services.